createdAt,value
2018-12-16T00:00:37.791Z,21.23
2018-12-16T00:03:09.579Z,21.20
2018-12-16T00:05:41.348Z,22.27
2018-12-16T00:08:11.163Z,24.57
2018-12-16T00:10:42.612Z,21.37
2018-12-16T00:13:12.659Z,21.03
2018-12-16T00:15:42.440Z,20.50
2018-12-16T00:18:12.222Z,20.87
2018-12-16T00:20:41.996Z,20.90
2018-12-16T00:23:12.004Z,22.23
2018-12-16T00:25:41.715Z,20.03
2018-12-16T00:28:11.535Z,19.97
2018-12-16T00:30:41.232Z,22.87
2018-12-16T00:33:11.088Z,22.67
2018-12-16T00:35:40.935Z,23.17
2018-12-16T00:38:10.741Z,21.60
2018-12-16T00:40:40.534Z,19.27
2018-12-16T00:43:10.325Z,21.27
2018-12-16T00:45:40.175Z,20.60
2018-12-16T00:48:09.936Z,20.87
2018-12-16T00:50:39.798Z,20.83
2018-12-16T00:53:09.879Z,20.90
2018-12-16T00:55:39.664Z,23.47
2018-12-16T00:58:09.456Z,20.37
2018-12-16T01:00:39.247Z,20.03
2018-12-16T01:03:09.067Z,19.17
2018-12-16T01:05:38.984Z,20.80
2018-12-16T01:08:09.771Z,19.40
2018-12-16T01:10:39.555Z,24.33
2018-12-16T01:13:09.488Z,20.07
2018-12-16T01:15:39.320Z,19.67
2018-12-16T01:18:09.087Z,20.47
2018-12-16T01:20:38.883Z,21.43
2018-12-16T01:23:08.666Z,20.03
2018-12-16T01:25:38.473Z,19.60
2018-12-16T01:28:08.272Z,20.73
2018-12-16T01:30:38.060Z,21.10
2018-12-16T01:33:07.843Z,18.07
2018-12-16T01:35:42.536Z,19.23
2018-12-16T01:38:12.328Z,21.53
2018-12-16T01:40:42.147Z,19.73
2018-12-16T01:43:12.072Z,19.50
2018-12-16T01:45:42.832Z,18.60
2018-12-16T01:48:12.313Z,20.20
2018-12-16T01:50:41.814Z,22.17
2018-12-16T01:53:11.321Z,19.40
2018-12-16T01:55:40.823Z,19.97
2018-12-16T01:58:10.301Z,19.57
2018-12-16T02:00:39.813Z,23.17
2018-12-16T02:03:09.333Z,19.87
2018-12-16T02:05:38.878Z,21.57
2018-12-16T02:08:08.410Z,18.90
2018-12-16T02:10:37.922Z,21.23
2018-12-16T02:13:07.418Z,17.73
2018-12-16T02:15:36.974Z,21.33
2018-12-16T02:18:11.454Z,20.33
2018-12-16T02:20:41.203Z,19.67
2018-12-16T02:23:10.767Z,18.87
2018-12-16T02:25:45.250Z,18.53
2018-12-16T02:28:14.686Z,20.57
2018-12-16T02:30:44.165Z,21.67
2018-12-16T02:33:13.666Z,21.53
2018-12-16T02:35:43.194Z,19.70
2018-12-16T02:38:12.743Z,19.47
2018-12-16T02:40:42.242Z,22.27
2018-12-16T02:43:11.838Z,21.63
2018-12-16T02:45:41.478Z,21.70
2018-12-16T02:48:11.075Z,21.47
2018-12-16T02:50:40.562Z,21.87
2018-12-16T02:53:10.115Z,20.57
2018-12-16T02:55:39.601Z,25.27
2018-12-16T02:58:09.158Z,20.13
2018-12-16T03:00:38.655Z,21.50
2018-12-16T03:03:09.941Z,21.03
2018-12-16T03:05:39.438Z,20.00
2018-12-16T03:08:13.958Z,18.40
2018-12-16T03:10:43.438Z,19.03
2018-12-16T03:13:12.832Z,19.33
2018-12-16T03:15:42.323Z,20.73
2018-12-16T03:18:12.119Z,24.07
2018-12-16T03:20:46.514Z,18.97
2018-12-16T03:23:16.099Z,17.30
2018-12-16T03:25:50.755Z,20.23
2018-12-16T03:28:20.252Z,19.27
2018-12-16T03:30:54.778Z,19.00
2018-12-16T03:33:24.314Z,18.60
2018-12-16T03:35:53.888Z,18.40
2018-12-16T03:38:23.442Z,20.20
2018-12-16T03:40:53.083Z,17.20
2018-12-16T03:43:22.642Z,17.03
2018-12-16T03:45:53.085Z,19.67
2018-12-16T03:48:22.716Z,20.10
2018-12-16T03:50:52.249Z,18.53
2018-12-16T03:53:21.742Z,16.23
2018-12-16T03:55:51.223Z,18.80
2018-12-16T03:58:20.727Z,19.67
2018-12-16T04:00:55.196Z,17.43
2018-12-16T04:03:24.687Z,17.03
2018-12-16T04:05:54.106Z,19.53
2018-12-16T04:08:23.614Z,20.90
2018-12-16T04:10:53.105Z,19.23
2018-12-16T04:13:22.866Z,16.40
2018-12-16T04:15:54.326Z,18.20
2018-12-16T04:18:23.826Z,19.40
2018-12-16T04:20:53.357Z,19.27
2018-12-16T04:23:27.408Z,19.80
2018-12-16T04:25:54.546Z,15.50
2018-12-16T04:28:24.120Z,20.13
2018-12-16T04:30:53.618Z,18.83
2018-12-16T04:33:23.149Z,19.23
2018-12-16T04:35:52.650Z,20.87
2018-12-16T04:38:22.183Z,20.20
2018-12-16T04:40:51.682Z,17.50
2018-12-16T04:43:21.205Z,21.53
2018-12-16T04:45:55.668Z,21.53
2018-12-16T04:48:25.357Z,22.03
2018-12-16T04:50:59.890Z,23.57
2018-12-16T04:53:35.880Z,22.87
2018-12-16T04:56:05.800Z,24.00
2018-12-16T04:58:35.345Z,21.27
2018-12-16T05:01:04.986Z,22.67
2018-12-16T05:03:34.476Z,22.43
2018-12-16T05:06:04.074Z,23.17
2018-12-16T05:08:33.565Z,24.97
2018-12-16T05:11:03.190Z,26.47
2018-12-16T05:13:32.677Z,29.97
2018-12-16T05:16:07.130Z,24.40
2018-12-16T05:18:36.866Z,23.93
2018-12-16T05:21:06.358Z,24.43
2018-12-16T05:23:41.662Z,24.53
2018-12-16T05:26:07.297Z,29.93
2018-12-16T05:28:36.818Z,23.73
2018-12-16T05:31:06.333Z,26.43
2018-12-16T05:33:35.831Z,25.50
2018-12-16T05:36:05.413Z,25.70
2018-12-16T05:38:34.912Z,26.43
2018-12-16T05:41:04.498Z,25.20
2018-12-16T05:43:33.982Z,25.27
2018-12-16T05:46:08.450Z,24.67
2018-12-16T05:48:37.938Z,27.07
2018-12-16T05:51:07.425Z,26.10
2018-12-16T05:53:36.915Z,25.43
2018-12-16T05:56:06.405Z,25.17
2018-12-16T05:58:35.892Z,26.13
2018-12-16T06:01:10.394Z,25.23
2018-12-16T06:03:40.116Z,24.40
2018-12-16T06:06:09.510Z,25.77
2018-12-16T06:08:39.009Z,25.97
2018-12-16T06:11:08.507Z,26.80
2018-12-16T06:13:37.897Z,27.37
2018-12-16T06:16:07.397Z,25.53
2018-12-16T06:18:36.833Z,25.43
2018-12-16T06:21:06.427Z,25.33
2018-12-16T06:23:35.910Z,26.40
2018-12-16T06:26:05.393Z,25.57
2018-12-16T06:28:39.861Z,28.20
2018-12-16T06:31:09.358Z,26.63
2018-12-16T06:33:38.857Z,23.27
2018-12-16T06:36:13.253Z,25.30
2018-12-16T06:38:42.742Z,23.90
2018-12-16T06:41:12.241Z,25.37
2018-12-16T06:43:41.758Z,25.27
2018-12-16T06:46:11.257Z,23.80
2018-12-16T06:48:40.777Z,26.03
2018-12-16T06:51:10.266Z,25.60
2018-12-16T06:53:39.765Z,28.03
2018-12-16T06:56:12.241Z,26.17
2018-12-16T06:58:41.751Z,26.00
2018-12-16T07:01:11.225Z,25.67
2018-12-16T07:03:40.721Z,24.83
2018-12-16T07:06:10.242Z,26.27
2018-12-16T07:08:39.754Z,26.27
2018-12-16T07:11:09.254Z,29.30
2018-12-16T07:13:38.753Z,25.10
2018-12-16T07:16:08.314Z,26.13
2018-12-16T07:18:37.797Z,30.90
2018-12-16T07:21:12.265Z,26.30
2018-12-16T07:23:46.659Z,27.23
2018-12-16T07:26:16.180Z,28.77
2018-12-16T07:28:45.739Z,28.23
2018-12-16T07:31:15.325Z,27.13
2018-12-16T07:33:49.929Z,25.90
2018-12-16T07:36:19.450Z,25.40
2018-12-16T07:38:48.986Z,26.80
2018-12-16T07:41:18.589Z,29.67
2018-12-16T07:43:48.220Z,26.87
2018-12-16T07:46:17.951Z,27.90
2018-12-16T07:48:47.483Z,25.33
2018-12-16T07:51:17.080Z,25.37
2018-12-16T07:53:46.625Z,23.27
2018-12-16T07:56:16.196Z,26.03
2018-12-16T07:58:45.785Z,24.43
2018-12-16T08:01:15.294Z,27.23
2018-12-16T08:03:44.709Z,27.17
2018-12-16T08:06:14.178Z,26.73
2018-12-16T08:08:43.777Z,28.63
2018-12-16T08:11:13.289Z,29.60
2018-12-16T08:13:42.782Z,28.17
2018-12-16T08:16:17.505Z,29.73
2018-12-16T08:18:46.998Z,29.63
2018-12-16T08:21:17.435Z,28.83
2018-12-16T08:23:46.945Z,28.37
2018-12-16T08:26:21.417Z,28.57
2018-12-16T08:28:55.881Z,27.50
2018-12-16T08:31:25.405Z,30.70
2018-12-16T08:33:54.889Z,26.27
2018-12-16T08:36:24.373Z,28.43
2018-12-16T08:38:53.806Z,27.40
2018-12-16T08:41:28.226Z,35.33
2018-12-16T08:44:02.688Z,30.73
2018-12-16T08:46:32.175Z,34.03
2018-12-16T08:49:01.561Z,27.50
2018-12-16T08:51:31.137Z,30.07
2018-12-16T08:57:02.918Z,25.83
2018-12-16T08:59:32.414Z,27.57
2018-12-16T09:02:03.274Z,28.33
2018-12-16T09:04:33.075Z,28.30
2018-12-16T09:07:02.662Z,29.80
2018-12-16T09:09:32.457Z,25.63
2018-12-16T09:12:06.882Z,28.80
2018-12-16T09:14:36.486Z,27.53
2018-12-16T09:17:05.990Z,28.53
2018-12-16T09:19:35.490Z,30.67
2018-12-16T09:22:05.942Z,27.93
2018-12-16T09:24:37.341Z,28.33
2018-12-16T09:27:11.928Z,32.83
2018-12-16T09:29:46.339Z,29.87
2018-12-16T09:32:15.831Z,30.37
2018-12-16T09:34:45.326Z,29.60
2018-12-16T09:37:14.821Z,30.80
2018-12-16T09:39:44.382Z,26.80
2018-12-16T09:42:13.902Z,26.90
2018-12-16T09:44:43.727Z,30.33
2018-12-16T09:47:13.241Z,31.27
2018-12-16T09:49:42.706Z,30.53
2018-12-16T09:52:12.206Z,30.13
2018-12-16T09:54:44.414Z,31.03
2018-12-16T09:57:13.169Z,34.23
2018-12-16T09:59:42.798Z,34.53
2018-12-16T10:02:12.197Z,32.60
2018-12-16T10:04:41.736Z,29.33
2018-12-16T10:07:11.242Z,30.07
2018-12-16T10:09:40.738Z,32.00
2018-12-16T10:12:10.277Z,33.90
2018-12-16T10:14:39.780Z,30.23
2018-12-16T10:17:09.297Z,30.53
2018-12-16T10:19:38.819Z,33.47
2018-12-16T10:22:08.335Z,34.33
2018-12-16T10:24:37.826Z,30.07
2018-12-16T10:27:07.323Z,33.87
2018-12-16T10:29:41.994Z,30.87
2018-12-16T10:32:11.498Z,29.93
2018-12-16T10:34:41.034Z,30.47
2018-12-16T10:37:15.426Z,35.20
2018-12-16T10:39:44.939Z,31.97
2018-12-16T10:42:19.429Z,32.80
2018-12-16T10:44:48.955Z,35.03
2018-12-16T10:47:18.448Z,29.93
2018-12-16T10:49:47.993Z,31.87
2018-12-16T10:52:17.393Z,29.73
2018-12-16T10:54:46.935Z,30.47
2018-12-16T10:57:16.433Z,29.63
2018-12-16T10:59:46.070Z,36.50
2018-12-16T11:02:15.594Z,30.67
2018-12-16T11:04:45.180Z,28.93
2018-12-16T11:07:19.775Z,31.13
2018-12-16T11:09:49.323Z,33.83
2018-12-16T11:12:19.201Z,34.10
2018-12-16T11:14:48.853Z,33.17
2018-12-16T11:17:18.814Z,42.13
2018-12-16T11:19:48.747Z,46.80
2018-12-16T11:22:18.294Z,27.50
2018-12-16T11:24:47.795Z,26.23
2018-12-16T11:27:17.219Z,26.77
2018-12-16T11:29:46.845Z,28.60
2018-12-16T11:32:21.316Z,28.83
2018-12-16T11:34:55.749Z,24.10
2018-12-16T11:37:25.244Z,25.53
2018-12-16T11:39:54.862Z,27.20
2018-12-16T11:42:29.478Z,25.73
2018-12-16T11:45:00.589Z,25.73
2018-12-16T11:47:36.532Z,28.27
2018-12-16T11:50:06.669Z,26.90
2018-12-16T11:52:36.226Z,23.77
2018-12-16T11:55:12.917Z,24.07
2018-12-16T11:57:47.727Z,25.63
2018-12-16T12:00:18.550Z,23.87
2018-12-16T12:02:53.305Z,26.43
2018-12-16T12:05:24.923Z,26.17
2018-12-16T12:07:59.440Z,28.60
2018-12-16T12:10:29.108Z,23.73
2018-12-16T12:13:03.811Z,25.60
2018-12-16T12:15:33.453Z,29.10
2018-12-16T12:18:08.055Z,28.80
2018-12-16T12:20:42.605Z,26.47
2018-12-16T12:23:17.094Z,29.50
2018-12-16T12:25:52.436Z,30.63
2018-12-16T12:28:27.244Z,28.67
2018-12-16T12:30:57.000Z,29.90
2018-12-16T12:33:31.459Z,33.00
2018-12-16T12:36:06.063Z,27.23
2018-12-16T12:38:35.643Z,26.80
2018-12-16T12:41:05.172Z,29.97
2018-12-16T12:43:39.875Z,31.53
2018-12-16T12:46:09.378Z,25.63
2018-12-16T12:48:43.850Z,32.90
2018-12-16T12:51:18.291Z,27.23
2018-12-16T12:53:47.919Z,28.40
2018-12-16T12:56:23.341Z,28.07
2018-12-16T12:58:57.867Z,27.93
2018-12-16T13:01:27.360Z,26.67
2018-12-16T13:04:01.800Z,27.30
2018-12-16T13:06:31.604Z,28.17
2018-12-16T13:09:01.145Z,29.80
2018-12-16T13:11:37.619Z,27.40
2018-12-16T13:14:07.137Z,30.47
2018-12-16T13:16:36.793Z,31.07
2018-12-16T13:19:11.385Z,28.33
2018-12-16T13:21:40.897Z,29.93
2018-12-16T13:24:10.579Z,58.33
2018-12-16T13:26:45.139Z,35.83
2018-12-16T13:29:20.241Z,30.03
2018-12-16T13:31:55.279Z,30.03
2018-12-16T13:34:25.680Z,28.33
2018-12-16T13:36:55.425Z,91.57
2018-12-16T13:39:26.148Z,108.20
2018-12-16T13:41:56.400Z,63.67
2018-12-16T13:44:26.474Z,28.17
2018-12-16T13:46:56.583Z,31.67
2018-12-16T13:49:27.387Z,38.43
2018-12-16T13:51:57.532Z,29.93
2018-12-16T13:54:32.676Z,30.57
2018-12-16T13:57:02.898Z,31.17
2018-12-16T13:59:32.803Z,34.23
2018-12-16T14:02:02.869Z,32.13
2018-12-16T14:04:33.030Z,31.20
2018-12-16T14:07:03.306Z,29.70
2018-12-16T14:09:33.407Z,29.30
2018-12-16T14:12:08.134Z,30.93
2018-12-16T14:14:37.686Z,30.43
2018-12-16T14:17:07.269Z,31.03
2018-12-16T14:19:36.851Z,31.13
2018-12-16T14:22:06.427Z,28.17
2018-12-16T14:24:36.151Z,32.77
2018-12-16T14:27:10.679Z,34.10
2018-12-16T14:29:40.317Z,27.60
2018-12-16T14:32:09.854Z,28.63
2018-12-16T14:34:39.407Z,28.03
2018-12-16T14:37:14.063Z,29.67
2018-12-16T14:39:43.577Z,30.23
2018-12-16T14:42:13.170Z,31.10
2018-12-16T14:44:43.044Z,30.27
2018-12-16T14:47:12.669Z,28.53
2018-12-16T14:49:42.411Z,28.77
2018-12-16T14:52:11.957Z,28.67
2018-12-16T14:54:41.543Z,33.43
2018-12-16T14:57:11.057Z,34.63
2018-12-16T14:59:40.859Z,28.73
2018-12-16T15:02:10.409Z,29.50
2018-12-16T15:04:45.050Z,31.80
2018-12-16T15:07:14.623Z,30.10
2018-12-16T15:09:44.310Z,28.37
2018-12-16T15:12:14.181Z,29.97
2018-12-16T15:14:43.938Z,29.33
2018-12-16T15:17:13.881Z,28.87
2018-12-16T15:19:43.547Z,30.03
2018-12-16T15:22:19.555Z,31.93
2018-12-16T15:24:49.139Z,28.07
2018-12-16T15:27:18.751Z,27.40
2018-12-16T15:29:48.754Z,34.00
2018-12-16T15:32:24.456Z,37.30
2018-12-16T15:34:59.089Z,28.10
2018-12-16T15:37:28.932Z,28.37
2018-12-16T15:40:03.884Z,30.20
2018-12-16T15:42:33.609Z,31.53
2018-12-16T15:45:05.009Z,35.30
2018-12-16T15:47:39.712Z,32.60
2018-12-16T15:50:09.903Z,30.70
2018-12-16T15:52:39.592Z,36.17
2018-12-16T15:55:14.125Z,32.27
2018-12-16T15:57:48.620Z,32.90
2018-12-16T16:00:25.390Z,31.10
2018-12-16T16:02:59.875Z,27.83
2018-12-16T16:05:29.512Z,29.53
2018-12-16T16:07:59.437Z,28.97
2018-12-16T16:10:29.019Z,37.93
2018-12-16T16:13:03.504Z,32.90
2018-12-16T16:15:33.173Z,33.33
2018-12-16T16:18:02.724Z,30.73
2018-12-16T16:20:37.236Z,28.50
2018-12-16T16:23:11.711Z,30.20
2018-12-16T16:25:47.220Z,29.53
2018-12-16T16:28:21.763Z,32.57
2018-12-16T16:30:56.331Z,31.73
2018-12-16T16:33:30.791Z,30.77
2018-12-16T16:36:00.459Z,28.80
2018-12-16T16:38:30.093Z,28.70
2018-12-16T16:41:04.835Z,25.90
2018-12-16T16:43:34.489Z,27.50
2018-12-16T16:46:04.427Z,28.43
2018-12-16T16:48:38.935Z,28.40
2018-12-16T16:51:13.908Z,26.53
2018-12-16T16:53:49.077Z,37.27
2018-12-16T16:56:24.866Z,28.27
2018-12-16T16:59:00.159Z,31.60
2018-12-16T17:01:35.022Z,31.97
2018-12-16T17:04:09.874Z,30.40
2018-12-16T17:06:39.733Z,31.47
2018-12-16T17:09:09.961Z,32.77
2018-12-16T17:11:39.771Z,26.93
2018-12-16T17:14:14.488Z,28.10
2018-12-16T17:16:44.051Z,32.17
2018-12-16T17:19:13.923Z,26.27
2018-12-16T17:21:44.408Z,28.80
2018-12-16T17:24:14.227Z,27.43
2018-12-16T17:26:48.919Z,30.73
2018-12-16T17:29:18.653Z,30.73
2018-12-16T17:31:57.867Z,33.57
2018-12-16T17:34:40.202Z,29.97
2018-12-16T17:37:17.998Z,41.70
2018-12-16T17:40:01.710Z,29.20
2018-12-16T17:42:54.700Z,27.10
2018-12-16T17:45:34.365Z,29.30
2018-12-16T17:48:16.190Z,39.17
2018-12-16T17:51:22.770Z,33.67
2018-12-16T18:00:23.276Z,25.37
2018-12-16T18:03:14.036Z,24.40
2018-12-16T18:06:15.858Z,28.70
2018-12-16T18:12:02.888Z,21.00
2018-12-16T18:14:54.276Z,26.23
2018-12-16T18:18:24.555Z,38.23
2018-12-16T18:21:11.679Z,29.63
2018-12-16T18:24:20.384Z,31.73
2018-12-16T18:27:30.183Z,36.13
2018-12-16T18:30:21.198Z,22.60
2018-12-16T18:33:02.167Z,29.70
2018-12-16T18:35:59.576Z,35.60
2018-12-16T18:41:58.677Z,23.80
2018-12-16T18:47:58.551Z,22.57
2018-12-16T18:50:59.172Z,21.33
2018-12-16T18:53:57.631Z,23.93
2018-12-16T18:57:07.094Z,29.57
2018-12-16T19:00:18.267Z,21.83
2018-12-16T19:03:03.182Z,26.60
2018-12-16T19:06:06.178Z,22.70
2018-12-16T19:38:58.270Z,30.43
2018-12-16T19:41:53.274Z,27.17
2018-12-16T19:44:50.639Z,23.70
2018-12-16T19:47:40.134Z,28.90
2018-12-16T19:54:13.661Z,20.37
2018-12-16T19:57:05.067Z,25.77
2018-12-16T20:00:17.019Z,24.57
2018-12-16T20:03:04.466Z,20.90
2018-12-16T20:05:50.187Z,18.13
2018-12-16T20:08:41.064Z,16.33
2018-12-16T20:11:38.759Z,19.93
2018-12-16T20:14:33.535Z,17.30
2018-12-16T20:17:29.311Z,16.60
2018-12-16T20:20:26.972Z,19.07
2018-12-16T20:23:24.176Z,17.17
2018-12-16T20:26:22.682Z,18.37
2018-12-16T20:32:24.790Z,16.57
2018-12-16T20:35:44.637Z,15.93
2018-12-16T20:59:07.124Z,18.63
2018-12-16T21:02:08.395Z,17.20
2018-12-16T21:07:46.405Z,16.23
2018-12-16T21:10:15.986Z,20.77
2018-12-16T21:12:51.028Z,16.07
2018-12-16T21:15:26.064Z,15.57
2018-12-16T21:18:30.710Z,16.63
2018-12-16T21:21:00.230Z,21.80
2018-12-16T21:23:34.738Z,16.70
2018-12-16T21:26:04.342Z,17.17
2018-12-16T21:28:33.895Z,15.07
2018-12-16T21:31:03.405Z,17.77
2018-12-16T21:33:32.970Z,15.67
2018-12-16T21:36:02.621Z,14.87
2018-12-16T21:38:32.224Z,16.20
2018-12-16T21:41:01.778Z,14.57
2018-12-16T21:43:31.525Z,13.97
2018-12-16T21:46:06.009Z,14.80
2018-12-16T21:48:35.573Z,15.57
2018-12-16T21:51:05.181Z,13.83
2018-12-16T21:53:34.762Z,13.87
2018-12-16T21:56:04.379Z,13.83
2018-12-16T21:58:33.923Z,13.97
2018-12-16T22:01:03.674Z,14.80
2018-12-16T22:03:34.354Z,14.90
2018-12-16T22:06:08.804Z,12.93
2018-12-16T22:08:38.466Z,13.97
2018-12-16T22:11:07.966Z,16.50
2018-12-16T22:13:37.516Z,13.33
2018-12-16T22:16:12.029Z,13.33
2018-12-16T22:18:41.542Z,13.10
2018-12-16T22:21:11.033Z,14.23
2018-12-16T22:23:40.598Z,12.33
2018-12-16T22:26:10.853Z,11.90
2018-12-16T22:28:40.417Z,12.83
2018-12-16T22:31:10.023Z,11.17
2018-12-16T22:33:39.559Z,11.53
2018-12-16T22:36:09.181Z,13.87
2018-12-16T22:38:38.678Z,14.03
2018-12-16T22:41:08.281Z,14.93
2018-12-16T22:43:38.118Z,12.53
2018-12-16T22:46:07.798Z,12.83
2018-12-16T22:48:37.293Z,13.43
2018-12-16T22:51:11.766Z,16.53
2018-12-16T22:53:41.317Z,12.43
2018-12-16T22:56:10.833Z,13.00
2018-12-16T22:58:41.225Z,9.47
2018-12-16T23:01:17.521Z,11.60
2018-12-16T23:03:48.669Z,13.20
2018-12-16T23:06:18.294Z,13.13
2018-12-16T23:08:47.802Z,12.13
2018-12-16T23:11:17.408Z,16.73
2018-12-16T23:13:47.653Z,18.73
2018-12-16T23:16:17.254Z,18.90
2018-12-16T23:18:46.949Z,14.57
2018-12-16T23:21:16.522Z,13.53
2018-12-16T23:23:46.066Z,22.23
2018-12-16T23:26:15.630Z,20.63
2018-12-16T23:28:45.126Z,19.73
2018-12-16T23:31:14.556Z,15.63
2018-12-16T23:33:44.070Z,14.83
2018-12-16T23:36:13.590Z,12.87
2018-12-16T23:38:43.195Z,11.17
2018-12-16T23:41:12.691Z,10.63
2018-12-16T23:43:42.186Z,11.90
2018-12-16T23:46:11.677Z,14.17
2018-12-16T23:48:41.182Z,14.13
2018-12-16T23:51:10.705Z,15.20
2018-12-16T23:53:40.438Z,15.00
2018-12-16T23:56:10.162Z,13.43
2018-12-16T23:58:45.126Z,15.30
